Time;durP1;ratioP1;P1;durP2;ratioP2;P2;SDS_P1;SDS_P2;PMS_P1;PMS_P2;Temp;Humidity;BMP_temperature;BMP_pressure;BME280_temperature;BME280_humidity;BME280_pressure;Samples;Min_cycle;Max_cycle;Signal;HPM_P1;HPM_P2
2021/09/12 00:01:28;;;;;;;3.42;2.60;;;21.80;35.90;;;;;;4191415;28;20538;-51
2021/09/12 00:03:31;;;;;;;4.88;2.85;;;21.80;35.60;;;;;;4194833;28;20139;-50
2021/09/12 00:05:36;;;;;;;4.32;2.67;;;21.80;35.50;;;;;;4195166;28;20423;-51
2021/09/12 00:07:38;;;;;;;4.22;2.72;;;21.80;35.00;;;;;;4193782;28;20715;-54
2021/09/12 00:09:40;;;;;;;3.92;2.65;;;21.90;35.10;;;;;;4193785;28;20149;-48
2021/09/12 00:11:43;;;;;;;3.75;2.50;;;21.90;35.50;;;;;;4192171;28;20149;-50
2021/09/12 00:13:45;;;;;;;4.78;2.70;;;22.00;35.20;;;;;;4185535;28;20055;-48
2021/09/12 00:15:47;;;;;;;4.70;2.83;;;22.00;35.40;;;;;;4180836;28;20048;-47
2021/09/12 00:17:49;;;;;;;3.95;2.97;;;22.00;35.40;;;;;;4179568;28;20135;-46
2021/09/12 00:19:52;;;;;;;3.35;2.67;;;22.00;35.20;;;;;;4187121;28;20044;-50
2021/09/12 00:21:54;;;;;;;4.00;2.80;;;22.10;34.80;;;;;;4179338;28;21352;-52
2021/09/12 00:23:56;;;;;;;5.40;3.13;;;22.10;34.50;;;;;;4185135;28;20117;-50
2021/09/12 00:25:58;;;;;;;4.43;2.67;;;22.10;34.80;;;;;;4182868;28;20045;-44
2021/09/12 00:28:01;;;;;;;4.83;3.10;;;22.20;34.30;;;;;;4179193;28;20388;-46
2021/09/12 00:30:05;;;;;;;5.18;2.92;;;22.20;33.30;;;;;;4178283;28;20044;-50
2021/09/12 00:32:07;;;;;;;3.58;2.58;;;22.30;33.10;;;;;;4182486;28;20150;-49
2021/09/12 00:34:10;;;;;;;5.55;2.75;;;22.40;33.30;;;;;;4183182;28;20045;-45
2021/09/12 00:36:13;;;;;;;4.38;2.65;;;22.40;33.80;;;;;;4182264;28;20071;-46
2021/09/12 00:38:15;;;;;;;6.47;3.45;;;22.50;32.30;;;;;;4182640;28;20117;-47
2021/09/12 00:40:20;;;;;;;6.18;3.00;;;22.60;33.00;;;;;;4177916;28;20053;-46
2021/09/12 00:42:22;;;;;;;28.90;5.03;;;22.70;33.30;;;;;;4177819;28;20177;-52
2021/09/12 00:44:25;;;;;;;7.95;3.47;;;;;;;;;;4179315;28;20049;-47
2021/09/12 00:46:27;;;;;;;9.07;2.73;;;22.70;33.60;;;;;;4180739;28;20067;-51
2021/09/12 00:48:29;;;;;;;6.68;3.47;;;22.90;32.20;;;;;;4183026;28;20362;-53
2021/09/12 00:50:31;;;;;;;4.88;2.78;;;23.00;32.20;;;;;;4178782;28;20179;-56
2021/09/12 00:52:43;;;;;;;5.63;2.70;;;23.20;32.40;;;;;;4179111;28;20131;-56
2021/09/12 00:54:48;;;;;;;6.22;2.78;;;23.30;32.10;;;;;;4182250;28;20207;-51
2021/09/12 00:56:50;;;;;;;5.20;2.72;;;23.40;32.30;;;;;;4180256;28;20129;-49
2021/09/12 00:58:55;;;;;;;5.22;2.40;;;23.50;32.10;;;;;;4183176;28;20156;-51
2021/09/12 01:00:58;;;;;;;11.20;2.70;;;23.50;32.60;;;;;;4181227;28;20045;-58
2021/09/12 01:03:00;;;;;;;12.27;3.30;;;23.50;32.60;;;;;;4182273;28;20079;-49
2021/09/12 01:05:02;;;;;;;13.20;3.45;;;23.50;33.90;;;;;;4181582;28;20098;-51
2021/09/12 01:07:07;;;;;;;7.72;3.13;;;23.50;33.70;;;;;;4180668;28;20135;-50
2021/09/12 01:09:10;;;;;;;8.90;2.80;;;23.50;33.30;;;;;;4177903;28;20055;-51
2021/09/12 01:11:12;;;;;;;7.80;2.58;;;23.60;33.40;;;;;;4182733;28;20044;-50
2021/09/12 01:13:14;;;;;;;5.07;2.70;;;23.60;32.90;;;;;;4182461;28;20558;-49
2021/09/12 01:15:16;;;;;;;7.40;2.70;;;;;;;;;;4181146;28;20072;-52
2021/09/12 01:17:18;;;;;;;4.40;2.70;;;;;;;;;;4179548;28;20119;-49
2021/09/12 01:19:21;;;;;;;4.20;2.75;;;;;;;;;;4188628;28;20048;-46
2021/09/12 01:21:23;;;;;;;3.15;2.47;;;;;;;;;;4180633;28;20059;-48
2021/09/12 01:23:25;;;;;;;4.63;2.63;;;;;;;;;;4186574;28;20068;-48
2021/09/12 01:25:28;;;;;;;4.13;3.00;;;23.60;32.80;;;;;;4181995;28;20032;-51
2021/09/12 01:27:30;;;;;;;3.70;2.70;;;23.80;33.10;;;;;;4184719;28;20068;-47
2021/09/12 01:29:32;;;;;;;3.03;2.40;;;23.90;31.20;;;;;;4185624;28;20067;-48
2021/09/12 01:31:34;;;;;;;3.78;2.60;;;24.00;30.70;;;;;;4185980;28;20041;-46
2021/09/12 01:33:36;;;;;;;5.57;2.60;;;24.10;30.60;;;;;;4184133;28;20064;-49
2021/09/12 01:35:39;;;;;;;3.50;2.35;;;24.30;29.80;;;;;;4182435;28;20178;-49
2021/09/12 01:37:41;;;;;;;2.53;2.10;;;24.40;29.90;;;;;;4182863;28;20044;-49
2021/09/12 01:39:43;;;;;;;4.50;2.50;;;24.50;29.90;;;;;;4181816;28;20043;-47
2021/09/12 01:41:45;;;;;;;3.45;2.40;;;24.50;30.10;;;;;;4184190;28;20055;-48
2021/09/12 01:43:52;;;;;;;3.15;2.17;;;24.50;30.30;;;;;;4182501;28;20045;-48
2021/09/12 01:45:54;;;;;;;4.65;2.28;;;24.50;30.10;;;;;;4184561;28;20127;-47
2021/09/12 01:48:00;;;;;;;4.28;2.20;;;24.50;30.10;;;;;;4180666;28;20159;-52
2021/09/12 01:50:02;;;;;;;3.95;2.45;;;24.50;30.50;;;;;;4176788;28;20745;-51
2021/09/12 01:52:05;;;;;;;4.20;2.53;;;24.50;30.00;;;;;;4176410;28;20144;-45
2021/09/12 01:54:07;;;;;;;3.35;2.33;;;24.50;30.00;;;;;;4186957;28;20305;-46
2021/09/12 01:56:09;;;;;;;3.25;2.38;;;24.60;30.10;;;;;;4177120;28;20123;-48
2021/09/12 01:58:12;;;;;;;3.57;2.43;;;24.60;30.00;;;;;;4172653;28;20051;-46
2021/09/12 02:02:13;;;;;;;4.03;2.38;;;24.60;28.90;;;;;;4210264;27;20576;-46
2021/09/12 02:04:15;;;;;;;4.25;2.65;;;24.80;29.00;;;;;;4195363;28;20136;-46
2021/09/12 02:06:17;;;;;;;4.07;2.42;;;24.90;28.10;;;;;;4187305;28;20083;-46
2021/09/12 02:08:19;;;;;;;5.30;2.20;;;25.10;27.70;;;;;;4189837;28;20041;-49
2021/09/12 02:10:26;;;;;;;3.92;2.30;;;25.20;26.40;;;;;;4190547;28;20101;-49
2021/09/12 02:12:28;;;;;;;4.43;2.15;;;25.40;26.40;;;;;;4188572;28;20105;-44
2021/09/12 02:14:30;;;;;;;5.43;2.40;;;25.50;26.70;;;;;;4191974;28;20083;-49
2021/09/12 02:16:32;;;;;;;3.55;2.05;;;25.60;26.50;;;;;;4187223;28;20045;-48
2021/09/12 02:18:35;;;;;;;3.97;1.80;;;25.70;24.80;;;;;;4190221;28;20121;-45
2021/09/12 02:20:38;;;;;;;2.30;1.63;;;25.70;24.10;;;;;;4193329;28;20106;-49
2021/09/12 02:22:40;;;;;;;5.63;1.92;;;25.80;24.50;;;;;;4193468;28;20558;-51
2021/09/12 02:24:42;;;;;;;2.90;1.65;;;26.00;23.20;;;;;;4190270;28;20068;-52
2021/09/12 02:26:44;;;;;;;7.07;2.10;;;26.20;21.30;;;;;;4194635;28;20045;-44
2021/09/12 02:28:46;;;;;;;4.03;1.90;;;26.40;20.90;;;;;;4188421;28;20051;-47
2021/09/12 02:30:48;;;;;;;2.95;1.70;;;26.50;20.60;;;;;;4189927;28;20088;-45
2021/09/12 02:32:51;;;;;;;5.60;2.00;;;26.60;20.30;;;;;;4191557;28;20044;-45
2021/09/12 02:34:53;;;;;;;4.13;1.65;;;26.60;19.80;;;;;;4188504;28;20105;-43
2021/09/12 02:36:55;;;;;;;3.20;1.70;;;26.70;20.20;;;;;;4189514;28;20048;-48
2021/09/12 02:38:57;;;;;;;2.33;1.60;;;26.70;20.30;;;;;;4192336;28;20080;-49
2021/09/12 02:41:00;;;;;;;6.32;2.38;;;26.80;20.60;;;;;;4191359;28;21598;-47
2021/09/12 02:43:02;;;;;;;3.45;1.90;;;26.90;20.40;;;;;;4191909;28;20040;-49
2021/09/12 02:45:09;;;;;;;5.17;2.30;;;26.90;20.20;;;;;;4194478;28;20044;-51
2021/09/12 02:47:11;;;;;;;3.42;1.80;;;27.00;20.00;;;;;;4189210;28;20857;-50
2021/09/12 02:49:14;;;;;;;5.75;1.90;;;27.10;20.10;;;;;;4183751;28;20052;-50
2021/09/12 02:51:16;;;;;;;5.07;1.90;;;27.10;19.60;;;;;;4187014;28;20040;-46
2021/09/12 02:53:18;;;;;;;5.53;2.10;;;27.20;20.00;;;;;;4154457;28;20137;-51
2021/09/12 02:55:20;;;;;;;2.63;1.70;;;27.30;20.50;;;;;;4165526;28;20060;-49
2021/09/12 02:57:22;;;;;;;8.10;2.10;;;27.40;19.80;;;;;;4174650;28;20074;-47
2021/09/12 02:59:24;;;;;;;10.60;1.83;;;27.40;20.10;;;;;;4171124;28;20147;-52
2021/09/12 03:01:27;;;;;;;5.37;1.53;;;27.50;20.70;;;;;;4166709;28;20074;-51
2021/09/12 03:03:29;;;;;;;7.10;2.05;;;;;;;;;;4169328;28;20052;-53
2021/09/12 03:05:31;;;;;;;3.93;2.10;;;;;;;;;;4171980;28;20040;-53
2021/09/12 03:07:33;;;;;;;3.15;1.70;;;27.60;19.90;;;;;;4168950;28;20079;-50
2021/09/12 03:09:35;;;;;;;3.20;1.50;;;27.80;20.00;;;;;;4169438;28;20121;-52
2021/09/12 03:11:38;;;;;;;4.78;1.90;;;27.80;19.80;;;;;;4168437;28;20045;-52
2021/09/12 03:13:40;;;;;;;3.05;1.55;;;27.70;20.60;;;;;;4161178;28;20044;-51
2021/09/12 03:15:42;;;;;;;4.20;1.67;;;27.70;21.40;;;;;;4156670;28;20603;-52
2021/09/12 03:17:44;;;;;;;5.57;2.22;;;27.60;21.20;;;;;;4161470;28;20044;-50
2021/09/12 03:19:46;;;;;;;3.70;1.83;;;27.60;21.10;;;;;;4159102;28;20052;-47
2021/09/12 03:21:49;;;;;;;2.60;1.85;;;27.60;21.40;;;;;;4164045;28;20056;-50
2021/09/12 03:23:51;;;;;;;3.78;2.00;;;27.50;21.20;;;;;;4160130;28;20178;-48
2021/09/12 03:25:53;;;;;;;4.38;1.85;;;27.50;21.50;;;;;;4161709;28;20045;-53
2021/09/12 03:27:55;;;;;;;4.67;2.57;;;27.60;21.30;;;;;;4161771;28;20061;-55
2021/09/12 03:29:58;;;;;;;5.30;2.78;;;27.60;21.00;;;;;;4158890;28;20301;-56
2021/09/12 03:32:00;;;;;;;3.85;2.45;;;27.60;21.70;;;;;;4166700;28;20059;-49
2021/09/12 03:34:02;;;;;;;4.20;2.30;;;27.70;22.40;;;;;;4163489;28;20270;-46
2021/09/12 03:36:05;;;;;;;5.97;2.53;;;27.70;23.00;;;;;;4163607;28;20482;-50
2021/09/12 03:38:08;;;;;;;4.20;2.20;;;27.70;23.60;;;;;;4162693;28;20096;-52
2021/09/12 03:40:11;;;;;;;4.20;2.15;;;27.70;23.90;;;;;;4166597;28;20484;-48
2021/09/12 03:42:13;;;;;;;4.15;2.33;;;27.70;24.50;;;;;;4156035;28;20049;-50
2021/09/12 03:44:15;;;;;;;4.47;2.23;;;27.70;24.50;;;;;;4160258;28;20760;-51
2021/09/12 03:46:17;;;;;;;3.20;2.50;;;27.70;24.60;;;;;;4166465;28;20095;-49
2021/09/12 03:48:19;;;;;;;4.25;2.08;;;27.70;25.10;;;;;;4166054;28;20313;-56
2021/09/12 03:50:22;;;;;;;4.60;2.23;;;27.70;25.50;;;;;;4168806;28;20087;-54
2021/09/12 03:52:24;;;;;;;2.97;2.00;;;27.70;25.50;;;;;;4162284;28;20464;-48
2021/09/12 03:54:26;;;;;;;1.90;1.70;;;27.80;26.00;;;;;;4166513;28;20045;-51
2021/09/12 03:56:28;;;;;;;3.83;2.20;;;27.80;26.40;;;;;;4157366;28;20136;-53
2021/09/12 03:58:31;;;;;;;4.53;2.13;;;27.80;27.00;;;;;;4163100;28;20227;-53
2021/09/12 04:00:33;;;;;;;3.53;2.03;;;27.80;26.60;;;;;;4163367;28;20061;-52
2021/09/12 04:02:36;;;;;;;3.08;1.88;;;27.80;26.90;;;;;;4164202;28;20498;-55
2021/09/12 04:04:38;;;;;;;3.13;2.08;;;27.90;26.90;;;;;;4157639;28;20052;-53
2021/09/12 04:06:40;;;;;;;4.57;1.73;;;27.90;27.20;;;;;;4160057;28;20072;-50
2021/09/12 04:08:42;;;;;;;3.50;2.20;;;27.90;27.40;;;;;;4155492;28;21690;-48
2021/09/12 04:10:44;;;;;;;3.83;2.10;;;27.90;27.50;;;;;;4154851;28;20064;-48
2021/09/12 04:12:46;;;;;;;5.23;2.10;;;27.90;27.60;;;;;;4154208;28;20063;-50
2021/09/12 04:14:49;;;;;;;4.63;2.17;;;28.00;27.80;;;;;;4156978;28;20036;-48
2021/09/12 04:16:51;;;;;;;6.13;1.95;;;28.00;27.80;;;;;;4155691;28;20048;-51
2021/09/12 04:18:53;;;;;;;3.77;2.17;;;28.00;27.90;;;;;;4156837;28;20048;-51
2021/09/12 04:20:55;;;;;;;5.15;2.10;;;28.10;28.00;;;;;;4156412;28;20363;-48
2021/09/12 04:22:57;;;;;;;2.43;1.83;;;28.10;28.00;;;;;;4152783;28;20056;-54
2021/09/12 04:25:00;;;;;;;6.93;2.10;;;28.10;28.00;;;;;;4156689;28;21500;-48
2021/09/12 04:27:02;;;;;;;3.45;2.00;;;28.20;28.10;;;;;;4154075;28;20165;-49
2021/09/12 04:29:04;;;;;;;2.88;1.77;;;28.20;28.00;;;;;;4157347;28;20037;-49
2021/09/12 04:31:07;;;;;;;3.65;1.92;;;28.30;28.20;;;;;;4156990;28;20052;-49
2021/09/12 04:33:09;;;;;;;3.72;2.15;;;28.30;28.20;;;;;;4155494;28;20055;-49
2021/09/12 04:35:11;;;;;;;3.83;2.00;;;28.30;28.30;;;;;;4153780;28;20067;-48
2021/09/12 04:37:14;;;;;;;2.67;2.05;;;28.40;28.40;;;;;;4156850;28;20542;-48
2021/09/12 04:39:16;;;;;;;4.05;2.05;;;28.40;28.50;;;;;;4155219;28;20048;-48
2021/09/12 04:41:19;;;;;;;3.08;1.90;;;28.40;28.50;;;;;;4155271;28;20586;-52
2021/09/12 04:43:21;;;;;;;2.30;1.63;;;28.50;28.80;;;;;;4152420;28;20053;-53
2021/09/12 04:45:23;;;;;;;3.50;1.90;;;28.50;28.80;;;;;;4157294;28;20040;-48
2021/09/12 04:47:25;;;;;;;3.27;1.80;;;28.60;28.90;;;;;;4154141;28;21797;-52
2021/09/12 04:49:27;;;;;;;4.43;2.05;;;28.60;28.90;;;;;;4157282;28;20080;-49
2021/09/12 04:51:29;;;;;;;5.77;1.87;;;28.60;28.80;;;;;;4154614;28;20045;-52
2021/09/12 04:53:32;;;;;;;2.83;1.80;;;28.70;28.90;;;;;;4152781;28;20056;-53
2021/09/12 04:55:34;;;;;;;2.70;1.80;;;28.70;29.00;;;;;;4159575;28;20055;-54
2021/09/12 04:57:36;;;;;;;4.18;1.90;;;28.80;29.10;;;;;;4155697;28;20058;-53
2021/09/12 04:59:38;;;;;;;3.50;2.00;;;28.80;29.00;;;;;;4156435;28;20057;-55
2021/09/12 05:02:16;;;;;;;2.53;1.63;;;28.90;28.70;;;;;;4156104;27;21226;-52
2021/09/12 05:04:18;;;;;;;2.08;1.58;;;29.00;29.10;;;;;;4154975;28;20056;-52
2021/09/12 05:06:20;;;;;;;3.93;1.83;;;29.00;29.20;;;;;;4153168;28;20155;-50
2021/09/12 05:08:22;;;;;;;2.42;1.60;;;29.10;29.30;;;;;;4151316;28;20083;-54
2021/09/12 05:10:25;;;;;;;2.65;1.88;;;29.10;29.30;;;;;;4153396;28;21468;-55
2021/09/12 05:12:28;;;;;;;2.38;1.42;;;29.10;29.40;;;;;;4153975;28;20110;-55
2021/09/12 05:14:30;;;;;;;4.13;1.58;;;29.20;29.50;;;;;;4152306;28;20059;-52
2021/09/12 05:16:32;;;;;;;3.03;1.60;;;29.20;29.40;;;;;;4150414;28;20057;-49
2021/09/12 05:18:34;;;;;;;3.80;1.63;;;29.20;29.50;;;;;;4153914;28;20072;-50
2021/09/12 05:20:37;;;;;;;5.97;2.05;;;29.20;29.50;;;;;;4150229;28;20061;-46
2021/09/12 05:22:40;;;;;;;4.38;1.67;;;29.20;29.40;;;;;;4181713;28;20128;-50
2021/09/12 05:24:42;;;;;;;2.40;1.60;;;29.30;29.40;;;;;;4149775;28;20044;-51
2021/09/12 05:26:44;;;;;;;8.90;1.80;;;29.20;29.40;;;;;;4151912;28;20044;-52
2021/09/12 05:28:46;;;;;;;3.17;1.87;;;29.30;29.30;;;;;;4148791;28;21118;-48
2021/09/12 05:30:49;;;;;;;3.80;1.73;;;29.20;29.40;;;;;;4151661;28;20301;-58
2021/09/12 05:32:51;;;;;;;7.22;2.00;;;29.30;29.50;;;;;;4150779;28;20053;-54
2021/09/12 05:34:53;;;;;;;3.70;1.80;;;29.30;29.20;;;;;;4150956;28;20052;-49
2021/09/12 05:36:55;;;;;;;3.85;1.70;;;29.30;28.90;;;;;;4153704;28;20041;-48
2021/09/12 05:38:58;;;;;;;2.75;1.67;;;29.30;27.60;;;;;;4156467;28;20055;-52
2021/09/12 05:41:00;;;;;;;2.25;1.50;;;29.20;27.40;;;;;;4152968;28;20071;-47
2021/09/12 05:43:03;;;;;;;1.73;1.40;;;29.20;27.30;;;;;;4157455;28;20612;-50
2021/09/12 05:45:06;;;;;;;3.95;1.50;;;29.20;27.30;;;;;;4151167;28;20064;-50
2021/09/12 05:47:09;;;;;;;2.55;1.40;;;29.20;27.30;;;;;;4154254;28;20037;-54
2021/09/12 05:49:11;;;;;;;2.00;1.27;;;29.10;27.30;;;;;;4154111;28;20062;-52
2021/09/12 05:51:13;;;;;;;3.53;1.63;;;29.10;27.40;;;;;;4152029;28;20079;-49
2021/09/12 05:53:18;;;;;;;3.27;1.70;;;29.10;27.60;;;;;;4153385;28;20056;-48
2021/09/12 05:55:20;;;;;;;2.67;1.63;;;29.10;27.60;;;;;;4151378;28;20049;-52
2021/09/12 05:57:22;;;;;;;7.45;2.08;;;29.10;27.30;;;;;;4156360;28;20049;-49
2021/09/12 05:59:24;;;;;;;2.40;1.50;;;29.10;27.10;;;;;;4156405;28;20055;-54
2021/09/12 06:01:26;;;;;;;2.23;1.50;;;29.10;26.80;;;;;;4151534;28;20309;-52
2021/09/12 06:03:29;;;;;;;3.15;1.80;;;29.10;26.50;;;;;;4154076;28;20056;-46
2021/09/12 06:05:31;;;;;;;1.87;1.57;;;29.10;26.20;;;;;;4156504;28;20056;-53
2021/09/12 06:07:33;;;;;;;2.83;1.50;;;29.10;25.90;;;;;;4151094;28;21874;-52
2021/09/12 06:09:35;;;;;;;3.37;1.53;;;29.10;25.80;;;;;;4153702;28;20301;-47
2021/09/12 06:11:37;;;;;;;3.30;1.50;;;29.10;25.60;;;;;;4153888;28;20404;-52
2021/09/12 06:13:39;;;;;;;4.63;1.67;;;29.10;25.60;;;;;;4138063;28;20049;-48
2021/09/12 06:15:42;;;;;;;3.57;1.70;;;29.10;25.30;;;;;;4142222;28;20504;-49
2021/09/12 06:17:44;;;;;;;2.75;1.73;;;29.10;25.40;;;;;;4141759;28;20131;-45
2021/09/12 06:19:46;;;;;;;2.53;1.30;;;29.20;25.30;;;;;;4145375;28;20052;-56
2021/09/12 06:21:48;;;;;;;4.57;1.83;;;29.20;25.40;;;;;;4142281;28;20049;-51
2021/09/12 06:23:50;;;;;;;3.77;1.50;;;29.30;25.50;;;;;;4144242;28;20060;-49
2021/09/12 06:25:52;;;;;;;5.60;1.50;;;29.30;25.60;;;;;;4140134;28;20056;-48
2021/09/12 06:27:55;;;;;;;4.83;1.77;;;29.30;25.60;;;;;;4146382;28;20305;-48
2021/09/12 06:29:57;;;;;;;4.63;1.80;;;29.30;25.70;;;;;;4142287;28;23991;-47
2021/09/12 06:31:59;;;;;;;2.93;1.67;;;29.30;25.90;;;;;;4144804;28;20060;-53
2021/09/12 06:34:01;;;;;;;3.43;1.57;;;29.40;26.10;;;;;;4139339;28;20103;-49
2021/09/12 06:36:04;;;;;;;3.17;1.63;;;29.40;26.30;;;;;;4144699;28;20515;-51
2021/09/12 06:38:06;;;;;;;3.15;1.83;;;29.40;26.50;;;;;;4142827;28;20046;-48
2021/09/12 06:40:09;;;;;;;3.80;1.73;;;29.40;26.60;;;;;;4140756;28;20413;-51
2021/09/12 06:42:11;;;;;;;4.28;1.80;;;29.40;26.70;;;;;;4142879;28;20357;-48
2021/09/12 06:44:13;;;;;;;2.50;1.42;;;29.40;26.80;;;;;;4142450;28;20102;-45
2021/09/12 06:46:16;;;;;;;3.00;1.73;;;29.40;27.30;;;;;;4143161;28;20049;-49
2021/09/12 06:48:18;;;;;;;3.80;1.70;;;29.40;26.70;;;;;;4142841;28;20592;-46
2021/09/12 06:50:21;;;;;;;3.67;1.80;;;29.40;26.80;;;;;;4141436;28;20056;-46
2021/09/12 06:52:23;;;;;;;;;;;29.40;26.90;;;;;;4142548;28;20052;-46
2021/09/12 06:54:25;;;;;;;3.33;2.03;;;29.40;26.90;;;;;;4144943;28;20392;-51
2021/09/12 06:56:27;;;;;;;3.88;2.15;;;29.40;26.90;;;;;;4143042;28;20057;-46
2021/09/12 06:58:29;;;;;;;4.93;2.00;;;29.40;26.90;;;;;;4144187;28;20199;-53
2021/09/12 07:00:32;;;;;;;2.63;1.70;;;29.40;27.10;;;;;;4139550;28;20122;-53
2021/09/12 07:02:36;;;;;;;6.45;2.03;;;29.40;27.20;;;;;;4141176;28;20152;-51
2021/09/12 07:04:39;;;;;;;6.88;2.30;;;29.40;27.10;;;;;;4142874;28;20078;-51
2021/09/12 07:06:41;;;;;;;5.38;2.78;;;29.40;27.30;;;;;;4138496;28;20099;-51
2021/09/12 07:08:43;;;;;;;5.43;3.43;;;29.40;27.50;;;;;;4143589;28;20037;-47
2021/09/12 07:10:46;;;;;;;8.25;7.40;;;;;;;;;;4141703;28;20049;-48
2021/09/12 07:12:48;;;;;;;6.15;4.00;;;29.40;27.60;;;;;;4143978;28;20049;-52
2021/09/12 07:14:52;;;;;;;4.78;2.80;;;29.90;27.30;;;;;;4143197;28;20126;-47
2021/09/12 07:16:54;;;;;;;5.72;2.53;;;30.50;27.30;;;;;;4142333;28;20049;-46
2021/09/12 07:18:57;;;;;;;4.97;2.05;;;30.90;27.20;;;;;;4137449;28;20041;-49
2021/09/12 07:20:59;;;;;;;3.17;2.13;;;30.60;27.60;;;;;;4140509;28;20045;-48
2021/09/12 07:23:02;;;;;;;3.70;2.30;;;30.20;27.90;;;;;;4139815;28;20049;-50
2021/09/12 07:25:05;;;;;;;3.88;1.88;;;29.90;28.30;;;;;;4145754;28;20053;-53
2021/09/12 07:27:07;;;;;;;3.85;1.80;;;29.60;28.70;;;;;;4143630;28;20175;-49
2021/09/12 07:29:09;;;;;;;3.47;2.03;;;;;;;;;;4146967;28;20471;-51
2021/09/12 07:31:11;;;;;;;3.20;2.00;;;;;;;;;;4137482;28;20532;-50
2021/09/12 07:33:13;;;;;;;4.15;2.20;;;;;;;;;;4145563;28;20049;-47
2021/09/12 07:35:15;;;;;;;3.57;2.20;;;;;;;;;;4142539;28;20558;-49
2021/09/12 07:37:17;;;;;;;5.70;2.17;;;29.40;29.00;;;;;;4145012;28;20072;-51
2021/09/12 07:39:19;;;;;;;4.00;1.90;;;28.70;29.90;;;;;;4145283;28;20049;-50
2021/09/12 07:41:22;;;;;;;6.30;2.43;;;28.60;29.80;;;;;;4174953;28;20576;-54
2021/09/12 07:43:24;;;;;;;3.58;2.25;;;28.60;29.80;;;;;;4145109;28;20087;-54
2021/09/12 07:45:26;;;;;;;4.03;2.40;;;28.50;29.90;;;;;;4144828;28;20057;-52
2021/09/12 07:47:28;;;;;;;3.65;2.15;;;28.50;30.00;;;;;;4141828;28;20159;-48
2021/09/12 07:49:30;;;;;;;4.10;2.20;;;28.40;30.00;;;;;;4143616;28;20061;-48
2021/09/12 07:51:32;;;;;;;4.10;2.13;;;28.30;30.20;;;;;;4130054;28;20044;-53
2021/09/12 07:53:34;;;;;;;4.97;2.50;;;28.30;30.00;;;;;;4145033;28;20127;-51
2021/09/12 07:55:36;;;;;;;4.25;2.15;;;28.30;30.50;;;;;;4146956;28;20080;-50
2021/09/12 07:57:39;;;;;;;4.07;2.00;;;28.20;32.10;;;;;;4143689;28;20109;-56
2021/09/12 07:59:41;;;;;;;4.65;1.98;;;28.20;32.30;;;;;;4144868;28;20048;-52
2021/09/12 08:02:11;;;;;;;4.95;2.40;;;28.20;31.90;;;;;;4176548;27;20472;-50
2021/09/12 08:04:13;;;;;;;4.90;2.33;;;28.20;32.90;;;;;;4172750;28;20048;-51
2021/09/12 08:06:15;;;;;;;4.32;2.20;;;28.20;33.30;;;;;;4176328;28;20305;-48
2021/09/12 08:08:19;;;;;;;4.97;1.93;;;28.20;33.50;;;;;;4177535;28;20052;-48
2021/09/12 08:10:21;;;;;;;3.28;1.83;;;28.20;33.50;;;;;;4174105;28;20044;-56
2021/09/12 08:12:23;;;;;;;4.90;2.00;;;28.20;33.70;;;;;;4168713;28;20193;-49
2021/09/12 08:14:25;;;;;;;4.45;2.00;;;28.20;33.70;;;;;;4180212;28;20521;-51
2021/09/12 08:16:27;;;;;;;4.25;1.80;;;28.20;33.70;;;;;;4179352;28;20056;-53
2021/09/12 08:18:29;;;;;;;4.57;1.77;;;28.20;33.70;;;;;;4180968;28;20055;-48
2021/09/12 08:20:32;;;;;;;3.57;1.70;;;28.20;33.70;;;;;;4177966;28;20079;-50
2021/09/12 08:22:34;;;;;;;3.88;2.15;;;28.20;34.10;;;;;;4179307;28;20735;-50
2021/09/12 08:24:36;;;;;;;3.92;2.05;;;28.20;34.20;;;;;;4174213;28;20082;-49
2021/09/12 08:26:39;;;;;;;3.70;1.80;;;28.20;34.10;;;;;;4173720;28;20526;-49
2021/09/12 08:28:41;;;;;;;;;;;28.10;34.20;;;;;;4172874;28;20499;-52
2021/09/12 08:30:43;;;;;;;3.22;1.92;;;28.10;34.10;;;;;;4174323;28;20720;-51
2021/09/12 08:32:45;;;;;;;4.03;1.70;;;28.10;34.40;;;;;;4172198;28;20546;-53
2021/09/12 08:34:47;;;;;;;3.47;2.00;;;28.10;34.40;;;;;;4171558;28;20045;-52
2021/09/12 08:36:50;;;;;;;4.47;1.90;;;28.10;34.60;;;;;;4169966;28;20041;-49
2021/09/12 08:38:52;;;;;;;;;;;28.10;34.70;;;;;;4170529;28;22045;-51
2021/09/12 08:40:57;;;;;;;2.55;1.73;;;28.10;34.80;;;;;;4168614;28;19935;-50
2021/09/12 08:43:00;;;;;;;2.95;1.80;;;28.10;35.00;;;;;;4163824;28;20055;-47
2021/09/12 08:45:04;;;;;;;3.97;1.85;;;28.10;34.90;;;;;;4167179;28;20067;-52
2021/09/12 08:47:07;;;;;;;2.75;1.80;;;28.10;35.10;;;;;;4168835;28;20099;-52
2021/09/12 08:49:12;;;;;;;3.83;2.30;;;28.10;35.20;;;;;;4171074;28;20056;-52
2021/09/12 08:51:14;;;;;;;2.92;1.88;;;28.10;35.50;;;;;;4170345;28;20511;-50
2021/09/12 08:53:19;;;;;;;4.35;1.90;;;28.10;35.50;;;;;;4169612;28;20071;-48
2021/09/12 08:55:21;;;;;;;10.47;2.43;;;28.10;34.90;;;;;;4164894;28;20068;-48
2021/09/12 08:57:23;;;;;;;17.38;2.63;;;28.00;34.70;;;;;;4168201;28;20320;-48
2021/09/12 08:59:34;;;;;;;12.15;2.72;;;28.00;34.80;;;;;;4167879;28;20048;-51
2021/09/12 09:01:37;;;;;;;15.15;3.10;;;28.00;34.80;;;;;;4170294;28;20060;-58
2021/09/12 09:03:41;;;;;;;11.35;2.63;;;28.00;35.10;;;;;;4168683;28;20437;-50
2021/09/12 09:05:44;;;;;;;14.10;2.55;;;28.00;35.20;;;;;;4172832;28;20075;-53
2021/09/12 09:07:46;;;;;;;27.30;4.50;;;28.00;34.80;;;;;;4171237;28;20055;-53
2021/09/12 09:09:50;;;;;;;21.50;3.60;;;28.00;35.30;;;;;;4172714;28;20133;-53
2021/09/12 09:11:52;;;;;;;26.10;4.38;;;28.00;35.30;;;;;;4173778;28;20040;-46
2021/09/12 09:13:55;;;;;;;18.65;3.42;;;28.00;35.60;;;;;;4157014;28;20158;-52
2021/09/12 09:16:01;;;;;;;16.63;3.30;;;28.00;35.90;;;;;;4151926;28;20064;-53
2021/09/12 09:18:07;;;;;;;10.82;2.47;;;28.00;36.00;;;;;;4154971;28;20621;-51
2021/09/12 09:20:12;;;;;;;12.55;2.60;;;28.00;36.30;;;;;;4155124;28;20167;-52
2021/09/12 09:22:30;;;;;;;17.02;2.17;;;28.00;36.30;;;;;;4172010;28;20107;-53
2021/09/12 09:24:33;;;;;;;5.03;1.55;;;28.00;36.30;;;;;;4179564;28;20563;-52
2021/09/12 09:26:46;;;;;;;5.07;1.70;;;28.00;36.60;;;;;;4179342;28;20477;-52
2021/09/12 09:28:55;;;;;;;6.65;1.63;;;28.00;36.50;;;;;;4185932;28;20052;-52
2021/09/12 09:30:57;;;;;;;4.47;1.33;;;28.00;36.50;;;;;;4179170;28;20135;-52
2021/09/12 09:33:23;;;;;;;2.75;1.20;;;28.00;36.70;;;;;;4178891;28;20037;-53
2021/09/12 09:35:26;;;;;;;2.55;0.93;;;28.00;36.70;;;;;;4177046;28;20064;-51
2021/09/12 09:37:28;;;;;;;2.90;1.00;;;28.00;36.60;;;;;;4176798;28;20127;-52
2021/09/12 09:39:41;;;;;;;2.65;0.98;;;28.00;36.60;;;;;;4178119;28;20056;-55
2021/09/12 09:41:43;;;;;;;1.63;0.85;;;28.00;36.90;;;;;;4180970;28;20049;-47
2021/09/12 09:43:54;;;;;;;1.57;0.80;;;28.00;36.80;;;;;;4177175;28;20113;-55
2021/09/12 09:45:56;;;;;;;1.52;0.80;;;28.00;36.70;;;;;;4179504;28;20091;-55
2021/09/12 09:48:03;;;;;;;1.73;0.82;;;28.00;36.60;;;;;;4177946;28;20128;-50
2021/09/12 09:50:14;;;;;;;1.40;0.70;;;28.00;36.90;;;;;;4178955;28;20189;-52
2021/09/12 09:52:17;;;;;;;3.10;1.00;;;27.90;37.00;;;;;;4180163;28;20045;-53
2021/09/12 09:54:21;;;;;;;1.40;0.60;;;28.00;37.20;;;;;;4181943;28;20052;-54
2021/09/12 09:56:24;;;;;;;1.63;0.85;;;27.90;37.00;;;;;;4178240;28;20305;-45
2021/09/12 09:58:26;;;;;;;2.33;1.27;;;27.90;37.10;;;;;;4178443;28;20072;-53
2021/09/12 10:00:29;;;;;;;1.43;1.10;;;28.00;37.20;;;;;;4176949;28;20176;-56
2021/09/12 10:02:34;;;;;;;2.20;0.88;;;27.90;37.20;;;;;;4177700;28;20407;-54
2021/09/12 10:04:39;;;;;;;3.35;1.08;;;27.90;37.10;;;;;;4178951;28;20044;-52
2021/09/12 10:06:43;;;;;;;8.93;1.67;;;27.90;37.00;;;;;;4181634;28;20052;-49
2021/09/12 10:08:45;;;;;;;1.92;1.23;;;27.90;37.00;;;;;;4178134;28;20057;-49
2021/09/12 10:10:48;;;;;;;2.58;1.13;;;27.90;37.60;;;;;;4178636;28;20061;-49
2021/09/12 10:12:57;;;;;;;2.47;1.30;;;27.90;37.10;;;;;;4184093;28;20055;-49
2021/09/12 10:15:03;;;;;;;2.72;1.40;;;27.90;37.10;;;;;;4186349;28;20053;-50
2021/09/12 10:17:13;;;;;;;1.85;1.08;;;27.90;37.20;;;;;;4185026;28;20053;-45
2021/09/12 10:19:37;;;;;;;3.63;1.17;;;27.90;37.20;;;;;;4189060;28;20036;-53
2021/09/12 10:21:39;;;;;;;1.90;1.25;;;27.90;37.20;;;;;;4185834;28;20049;-51
2021/09/12 10:24:08;;;;;;;4.40;1.40;;;27.90;37.30;;;;;;4184945;28;20082;-51
2021/09/12 10:26:28;;;;;;;4.38;1.50;;;27.90;37.40;;;;;;4182100;28;20294;-50
2021/09/12 10:28:35;;;;;;;4.13;1.20;;;27.90;37.50;;;;;;4185578;28;20040;-47
2021/09/12 10:30:37;;;;;;;3.20;1.23;;;27.90;37.50;;;;;;4183209;28;20045;-51
2021/09/12 10:32:39;;;;;;;1.80;1.30;;;27.90;37.60;;;;;;4186284;28;20071;-49
2021/09/12 10:35:17;;;;;;;2.85;1.30;;;27.90;37.70;;;;;;4183638;28;20100;-49
2021/09/12 10:37:34;;;;;;;2.05;0.93;;;27.90;37.80;;;;;;4186277;28;20133;-52
2021/09/12 10:39:36;;;;;;;1.83;1.20;;;27.90;37.30;;;;;;4181489;28;20139;-49
2021/09/12 10:41:38;;;;;;;2.95;1.60;;;27.90;36.90;;;;;;4185194;28;20177;-49
2021/09/12 10:43:41;;;;;;;2.40;1.48;;;27.90;36.10;;;;;;4186327;28;20047;-47
2021/09/12 10:45:43;;;;;;;3.28;1.75;;;27.80;36.10;;;;;;4190087;28;20058;-48
2021/09/12 10:47:46;;;;;;;2.43;1.40;;;27.80;36.40;;;;;;4185081;28;20033;-47